createdAt,value
2019-03-19T00:00:04.029Z,0.30
2019-03-19T00:02:34.066Z,0.30
2019-03-19T00:05:19.497Z,0.30
2019-03-19T00:07:39.578Z,0.30
2019-03-19T00:10:16.197Z,0.40
2019-03-19T00:12:48.153Z,0.40
2019-03-19T00:15:22.373Z,0.40
2019-03-19T00:17:52.693Z,0.50
2019-03-19T00:20:25.763Z,0.50
2019-03-19T00:23:26.359Z,0.50
2019-03-19T00:25:56.675Z,0.40
2019-03-19T00:28:27.193Z,0.40
2019-03-19T00:30:57.702Z,0.40
2019-03-19T00:33:27.924Z,0.40
2019-03-19T00:35:57.950Z,0.30
2019-03-19T00:38:27.893Z,0.30
2019-03-19T00:40:58.240Z,0.20
2019-03-19T00:43:28.344Z,0.20
2019-03-19T00:45:58.463Z,0.10
2019-03-19T00:48:29.049Z,0.10
2019-03-19T00:51:00.584Z,0.10
2019-03-19T00:53:39.902Z,0.10
2019-03-19T00:56:09.941Z,0.10
2019-03-19T00:58:45.207Z,0.10
2019-03-19T01:01:15.038Z,0.00
2019-03-19T01:03:46.201Z,0.00
2019-03-19T01:06:16.259Z,-0.10
2019-03-19T01:08:49.137Z,-0.10
2019-03-19T01:11:36.037Z,-0.10
2019-03-19T01:13:55.308Z,-0.10
2019-03-19T01:16:25.255Z,-0.10
2019-03-19T01:18:55.216Z,-0.10
2019-03-19T01:21:25.588Z,-0.10
2019-03-19T01:23:55.527Z,-0.20
2019-03-19T01:26:25.430Z,-0.30
2019-03-19T01:28:55.832Z,-0.30
2019-03-19T01:31:26.753Z,-0.30
2019-03-19T01:33:56.713Z,-0.40
2019-03-19T01:36:28.859Z,-0.30
2019-03-19T01:39:01.937Z,-0.40
2019-03-19T01:41:34.134Z,-0.30
2019-03-19T01:44:04.428Z,-0.30
2019-03-19T01:46:34.428Z,-0.30
2019-03-19T01:49:06.137Z,-0.30
2019-03-19T01:51:36.123Z,-0.30
2019-03-19T01:54:06.654Z,-0.30
2019-03-19T01:56:37.169Z,-0.30
2019-03-19T01:59:07.161Z,-0.30
2019-03-19T02:01:37.183Z,-0.30
2019-03-19T02:04:07.508Z,-0.30
2019-03-19T02:06:37.439Z,-0.30
2019-03-19T02:09:09.743Z,-0.30
2019-03-19T02:11:43.758Z,-0.30
2019-03-19T02:14:13.738Z,-0.30
2019-03-19T02:16:43.743Z,-0.30
2019-03-19T02:19:13.725Z,-0.30
2019-03-19T02:21:46.719Z,-0.30
2019-03-19T02:24:16.824Z,-0.30
2019-03-19T02:26:47.041Z,-0.30
2019-03-19T02:29:19.574Z,-0.30
2019-03-19T02:31:49.609Z,-0.30
2019-03-19T02:34:22.295Z,-0.30
2019-03-19T02:36:52.182Z,-0.40
2019-03-19T02:39:22.872Z,-0.40
2019-03-19T02:41:52.862Z,-0.30
2019-03-19T02:44:24.669Z,-0.40
2019-03-19T02:46:54.771Z,-0.40
2019-03-19T02:49:25.159Z,-0.40
2019-03-19T02:51:55.069Z,-0.40
2019-03-19T02:54:25.441Z,-0.40
2019-03-19T02:56:55.434Z,-0.40
2019-03-19T02:59:25.423Z,-0.40
2019-03-19T03:01:55.436Z,-0.40
2019-03-19T03:04:28.390Z,-0.40
2019-03-19T03:07:02.397Z,-0.40
2019-03-19T03:09:32.502Z,-0.50
2019-03-19T03:12:02.703Z,-0.50
2019-03-19T03:14:33.163Z,-0.60
2019-03-19T03:17:03.168Z,-0.60
2019-03-19T03:19:33.296Z,-0.60
2019-03-19T03:22:03.767Z,-0.70
2019-03-19T03:24:33.665Z,-0.60
2019-03-19T03:27:03.648Z,-0.60
2019-03-19T03:29:48.465Z,-0.60
2019-03-19T03:32:18.468Z,-0.60
2019-03-19T03:34:48.558Z,-0.60
2019-03-19T03:37:18.559Z,-0.60
2019-03-19T03:39:48.547Z,-0.60
2019-03-19T03:42:18.456Z,-0.60
2019-03-19T03:44:48.902Z,-0.60
2019-03-19T03:47:18.830Z,-0.60
2019-03-19T03:49:48.742Z,-0.60
2019-03-19T03:52:25.516Z,-0.60
2019-03-19T03:54:56.794Z,-0.60
2019-03-19T03:57:26.719Z,-0.60
2019-03-19T03:59:58.920Z,-0.70
2019-03-19T04:02:28.973Z,-0.70
2019-03-19T04:04:59.533Z,-0.70
2019-03-19T04:07:30.526Z,-0.70
2019-03-19T04:10:00.587Z,-0.70
2019-03-19T04:12:30.721Z,-0.70
2019-03-19T04:15:01.321Z,-0.70
2019-03-19T04:17:31.446Z,-0.70
2019-03-19T04:20:01.449Z,-0.70
2019-03-19T04:22:34.193Z,-0.70
2019-03-19T04:25:03.507Z,-0.70
2019-03-19T04:27:33.565Z,-0.80
2019-03-19T04:30:03.945Z,-0.80
2019-03-19T04:32:33.986Z,-0.80
2019-03-19T04:35:04.005Z,-0.90
2019-03-19T04:37:37.864Z,-0.90
2019-03-19T04:40:09.508Z,-0.90
2019-03-19T04:42:39.467Z,-0.90
2019-03-19T04:45:10.485Z,-0.90
2019-03-19T04:47:40.419Z,-0.90
2019-03-19T04:50:10.970Z,-0.90
2019-03-19T04:52:40.913Z,-0.90
2019-03-19T04:55:11.631Z,-0.90
2019-03-19T04:57:42.342Z,-1.00
2019-03-19T05:00:12.482Z,-0.90
2019-03-19T05:02:42.507Z,-1.00
2019-03-19T05:05:13.390Z,-1.00
2019-03-19T05:07:43.478Z,-1.00
2019-03-19T05:10:13.853Z,-1.00
2019-03-19T05:12:45.178Z,-1.00
2019-03-19T05:15:15.379Z,-1.10
2019-03-19T05:17:45.717Z,-1.10
2019-03-19T05:20:16.885Z,-1.10
2019-03-19T05:22:46.994Z,-1.10
2019-03-19T05:25:20.737Z,-1.00
2019-03-19T05:27:50.663Z,-1.00
2019-03-19T05:30:20.704Z,-1.00
2019-03-19T05:32:50.834Z,-1.00
2019-03-19T05:35:20.851Z,-1.00
2019-03-19T05:37:50.925Z,-1.00
2019-03-19T05:40:22.429Z,-1.10
2019-03-19T05:42:52.435Z,-1.10
2019-03-19T05:45:22.465Z,-1.10
2019-03-19T05:47:52.627Z,-1.20
2019-03-19T05:50:22.773Z,-1.20
2019-03-19T05:52:52.679Z,-1.20
2019-03-19T05:55:24.849Z,-1.30
2019-03-19T05:57:55.006Z,-1.30
2019-03-19T06:03:05.530Z,-1.30
2019-03-19T06:05:35.626Z,-1.20
2019-03-19T06:08:05.900Z,-1.20
2019-03-19T06:10:36.149Z,-1.20
2019-03-19T06:13:06.321Z,-1.20
2019-03-19T06:15:40.149Z,-1.20
2019-03-19T06:18:10.824Z,-1.10
2019-03-19T06:20:40.973Z,-1.10
2019-03-19T06:23:12.574Z,-1.10
2019-03-19T06:25:43.408Z,-1.00
2019-03-19T06:28:13.539Z,-1.00
2019-03-19T06:30:43.480Z,-1.00
2019-03-19T06:33:13.552Z,-0.90
2019-03-19T06:35:45.474Z,-0.90
2019-03-19T06:38:15.543Z,-0.80
2019-03-19T06:40:46.407Z,-0.70
2019-03-19T06:43:16.526Z,-0.70
2019-03-19T06:45:46.440Z,-0.60
2019-03-19T06:48:16.464Z,-0.60
2019-03-19T06:50:46.695Z,-0.60
2019-03-19T06:53:20.099Z,-0.60
2019-03-19T06:55:50.559Z,-0.50
2019-03-19T06:58:20.472Z,-0.50
2019-03-19T07:00:53.072Z,-0.40
2019-03-19T07:03:23.227Z,-0.40
2019-03-19T07:05:55.064Z,-0.40
2019-03-19T07:08:25.217Z,-0.30
2019-03-19T07:10:55.347Z,-0.20
2019-03-19T07:13:28.188Z,-0.10
2019-03-19T07:15:58.653Z,0.00
2019-03-19T07:18:33.646Z,0.10
2019-03-19T07:21:02.893Z,0.20
2019-03-19T07:23:34.674Z,0.30
2019-03-19T07:26:04.851Z,0.40
2019-03-19T07:28:36.243Z,0.50
2019-03-19T07:31:06.338Z,0.60
2019-03-19T07:33:39.507Z,0.70
2019-03-19T07:36:09.550Z,0.80
2019-03-19T07:38:40.078Z,0.90
2019-03-19T07:41:13.694Z,1.00
2019-03-19T07:43:45.414Z,1.10
2019-03-19T07:46:17.694Z,1.20
2019-03-19T07:48:47.667Z,1.40
2019-03-19T07:54:50.938Z,1.60
2019-03-19T07:57:20.643Z,1.70
2019-03-19T07:59:51.190Z,1.80
2019-03-19T08:02:22.316Z,1.90
2019-03-19T08:04:52.962Z,2.00
2019-03-19T08:07:23.078Z,2.10
2019-03-19T08:09:53.613Z,2.20
2019-03-19T08:12:29.455Z,2.30
2019-03-19T08:14:59.438Z,2.40
2019-03-19T08:17:32.198Z,2.60
2019-03-19T08:20:04.215Z,2.80
2019-03-19T08:22:41.698Z,2.90
2019-03-19T08:25:12.632Z,3.00
2019-03-19T08:27:42.939Z,3.10
2019-03-19T08:30:15.423Z,3.20
2019-03-19T08:32:48.319Z,3.30
2019-03-19T08:35:18.588Z,3.30
2019-03-19T08:37:49.227Z,3.40
2019-03-19T08:40:19.873Z,3.50
2019-03-19T08:42:51.488Z,3.50
2019-03-19T08:45:23.525Z,3.70
2019-03-19T08:47:53.434Z,3.70
2019-03-19T08:50:23.692Z,3.80
2019-03-19T08:52:55.439Z,3.80
2019-03-19T08:55:25.982Z,3.90
2019-03-19T08:57:58.609Z,3.90
2019-03-19T09:00:34.219Z,4.00
2019-03-19T09:03:10.992Z,4.10
2019-03-19T09:05:43.421Z,4.20
2019-03-19T09:08:13.543Z,4.30
2019-03-19T09:10:43.738Z,4.50
2019-03-19T09:13:17.145Z,4.70
2019-03-19T09:15:47.670Z,4.70
2019-03-19T09:18:17.663Z,4.80
2019-03-19T09:20:47.755Z,4.80
2019-03-19T09:23:17.680Z,4.90
2019-03-19T09:25:49.234Z,5.00
2019-03-19T09:28:20.100Z,5.00
2019-03-19T09:30:52.846Z,5.10
2019-03-19T09:33:23.375Z,5.20
2019-03-19T09:35:54.493Z,5.20
2019-03-19T09:38:24.591Z,5.40
2019-03-19T09:40:54.604Z,5.40
2019-03-19T09:43:25.522Z,5.50
2019-03-19T09:45:59.214Z,5.60
2019-03-19T09:48:28.797Z,5.60
2019-03-19T09:50:59.243Z,5.60
2019-03-19T09:53:33.901Z,5.60
2019-03-19T09:56:04.263Z,5.60
2019-03-19T09:58:34.736Z,5.50
2019-03-19T10:01:05.974Z,5.50
2019-03-19T10:03:51.421Z,5.50
2019-03-19T10:06:22.188Z,5.60
2019-03-19T10:08:52.514Z,5.70
2019-03-19T10:11:27.265Z,5.70
2019-03-19T10:14:00.308Z,5.70
2019-03-19T10:16:30.550Z,5.80
2019-03-19T10:19:03.813Z,5.90
2019-03-19T10:21:33.840Z,5.80
2019-03-19T10:24:04.129Z,5.80
2019-03-19T10:26:34.174Z,5.90
2019-03-19T10:29:04.571Z,5.90
2019-03-19T10:31:36.227Z,6.00
2019-03-19T10:34:10.198Z,6.10
2019-03-19T10:36:45.688Z,6.30
2019-03-19T10:39:15.964Z,6.40
2019-03-19T10:41:49.478Z,6.60
2019-03-19T10:44:25.611Z,6.80
2019-03-19T10:47:13.309Z,6.90
2019-03-19T10:49:43.674Z,7.00
2019-03-19T10:52:14.456Z,7.10
2019-03-19T10:54:45.628Z,7.20
2019-03-19T10:57:15.858Z,7.20
2019-03-19T10:59:49.417Z,7.20
2019-03-19T11:02:19.304Z,7.30
2019-03-19T11:04:49.375Z,7.40
2019-03-19T11:07:20.669Z,7.50
2019-03-19T11:09:50.833Z,7.60
2019-03-19T11:12:30.729Z,7.70
2019-03-19T11:15:00.853Z,7.70
2019-03-19T11:17:31.799Z,7.60
2019-03-19T11:20:05.158Z,7.60
2019-03-19T11:22:35.198Z,7.60
2019-03-19T11:25:06.289Z,7.70
2019-03-19T11:27:41.184Z,7.70
2019-03-19T11:30:17.474Z,7.80
2019-03-19T11:32:50.810Z,7.80
2019-03-19T11:35:38.353Z,7.70
2019-03-19T11:38:15.416Z,7.60
2019-03-19T11:40:48.624Z,7.50
2019-03-19T11:43:22.412Z,7.50
2019-03-19T11:45:53.930Z,7.50
2019-03-19T11:48:24.545Z,7.60
2019-03-19T11:51:03.026Z,7.60
2019-03-19T11:53:47.767Z,7.60
2019-03-19T11:56:17.903Z,7.50
2019-03-19T11:58:51.151Z,7.50
2019-03-19T12:01:23.559Z,7.50
2019-03-19T12:03:53.772Z,7.80
2019-03-19T12:06:24.439Z,7.60
2019-03-19T12:08:57.359Z,7.60
2019-03-19T12:11:27.977Z,7.70
2019-03-19T12:14:01.416Z,7.80
2019-03-19T12:16:36.369Z,7.90
2019-03-19T12:19:06.942Z,8.00
2019-03-19T12:21:37.133Z,8.10
2019-03-19T12:24:08.109Z,8.10
2019-03-19T12:26:38.286Z,8.00
2019-03-19T12:29:12.197Z,8.00
2019-03-19T12:31:46.948Z,8.10
2019-03-19T12:34:17.196Z,8.10
2019-03-19T12:36:47.558Z,8.20
2019-03-19T12:39:19.038Z,8.30
2019-03-19T12:41:55.245Z,8.30
2019-03-19T12:44:25.615Z,8.30
2019-03-19T12:47:02.317Z,8.30
2019-03-19T12:49:35.956Z,8.20
2019-03-19T12:52:07.230Z,8.20
2019-03-19T12:54:38.073Z,8.30
2019-03-19T12:57:11.693Z,8.30
2019-03-19T12:59:42.699Z,8.40
2019-03-19T13:02:13.110Z,8.40
2019-03-19T13:04:44.039Z,8.40
2019-03-19T13:07:17.548Z,8.40
2019-03-19T13:09:49.098Z,8.40
2019-03-19T13:12:19.663Z,8.30
2019-03-19T13:14:51.988Z,8.30
2019-03-19T13:17:24.563Z,8.40
2019-03-19T13:19:55.237Z,8.50
2019-03-19T13:22:25.459Z,8.60
2019-03-19T13:24:55.958Z,8.60
2019-03-19T13:27:29.358Z,8.70
2019-03-19T13:29:59.573Z,8.60
2019-03-19T13:32:29.704Z,8.60
2019-03-19T13:35:02.903Z,8.60
2019-03-19T13:37:39.903Z,8.70
2019-03-19T13:40:20.347Z,8.70
2019-03-19T13:42:54.204Z,8.70
2019-03-19T13:45:39.337Z,8.80
2019-03-19T13:48:25.480Z,8.80
2019-03-19T13:51:07.918Z,8.80
2019-03-19T13:53:39.906Z,8.80
2019-03-19T13:56:13.918Z,8.90
2019-03-19T13:59:03.224Z,8.80
2019-03-19T14:01:47.840Z,8.90
2019-03-19T14:04:15.478Z,8.90
2019-03-19T14:06:45.734Z,9.00
2019-03-19T14:09:23.047Z,9.00
2019-03-19T14:11:59.122Z,9.10
2019-03-19T14:14:30.199Z,9.10
2019-03-19T14:17:07.721Z,9.20
2019-03-19T14:19:43.040Z,9.20
2019-03-19T14:22:15.896Z,9.20
2019-03-19T14:24:49.999Z,9.20
2019-03-19T14:27:27.898Z,9.30
2019-03-19T14:30:00.698Z,9.40
2019-03-19T14:32:32.689Z,9.40
2019-03-19T14:35:06.478Z,9.40
2019-03-19T14:37:37.861Z,9.40
2019-03-19T14:40:09.960Z,9.40
2019-03-19T14:42:47.254Z,9.50
2019-03-19T14:45:22.902Z,9.60
2019-03-19T14:47:53.368Z,9.70
2019-03-19T14:50:47.335Z,9.70
2019-03-19T14:53:18.552Z,9.80
2019-03-19T14:55:54.390Z,9.80
2019-03-19T14:58:28.396Z,9.80
2019-03-19T15:01:18.751Z,9.80
2019-03-19T15:03:44.549Z,9.80
2019-03-19T15:06:23.728Z,9.70
2019-03-19T15:08:58.288Z,9.70
2019-03-19T15:11:28.724Z,9.70
2019-03-19T15:14:00.606Z,9.80
2019-03-19T15:16:31.423Z,9.90
2019-03-19T15:19:07.709Z,10.00
2019-03-19T15:21:41.189Z,9.90
2019-03-19T15:24:13.066Z,9.90
2019-03-19T15:27:11.775Z,10.00
2019-03-19T15:29:42.125Z,10.00
2019-03-19T15:32:12.169Z,10.00
2019-03-19T15:34:44.033Z,9.90
2019-03-19T15:37:17.952Z,10.00
2019-03-19T15:39:51.954Z,10.00
2019-03-19T15:42:22.119Z,10.00
2019-03-19T15:44:57.847Z,10.00
2019-03-19T15:47:28.448Z,10.00
2019-03-19T15:49:58.675Z,10.00
2019-03-19T15:52:33.205Z,10.00
2019-03-19T15:55:06.527Z,10.00
2019-03-19T15:57:36.674Z,9.90
2019-03-19T16:00:09.601Z,9.80
2019-03-19T16:02:50.248Z,9.80
2019-03-19T16:05:23.140Z,9.80
2019-03-19T16:08:02.850Z,9.70
2019-03-19T16:10:36.183Z,9.70
2019-03-19T16:13:12.756Z,9.70
2019-03-19T16:15:41.129Z,9.70
2019-03-19T16:18:15.913Z,9.60
2019-03-19T16:20:47.086Z,9.60
2019-03-19T16:23:39.660Z,9.60
2019-03-19T16:26:10.035Z,9.50
2019-03-19T16:28:41.232Z,9.50
2019-03-19T16:31:12.730Z,9.50
2019-03-19T16:33:48.370Z,9.40
2019-03-19T16:36:17.871Z,9.30
2019-03-19T16:38:59.905Z,9.30
2019-03-19T16:41:34.122Z,9.20
2019-03-19T16:44:10.076Z,9.10
2019-03-19T16:46:43.147Z,9.00
2019-03-19T16:49:15.400Z,8.90
2019-03-19T16:51:46.361Z,8.90
2019-03-19T16:54:19.364Z,8.80
2019-03-19T16:56:50.450Z,8.70
2019-03-19T16:59:22.972Z,8.60
2019-03-19T17:02:01.503Z,8.60
2019-03-19T17:04:33.956Z,8.60
2019-03-19T17:07:08.071Z,8.50
2019-03-19T17:09:38.305Z,8.50
2019-03-19T17:12:12.014Z,8.50
2019-03-19T17:14:45.116Z,8.40
2019-03-19T17:17:18.398Z,8.40
2019-03-19T17:19:48.625Z,8.40
2019-03-19T17:22:21.456Z,8.30
2019-03-19T17:24:51.593Z,8.30
2019-03-19T17:27:23.718Z,8.20
2019-03-19T17:30:09.604Z,8.20
2019-03-19T17:32:50.374Z,8.10
2019-03-19T17:35:21.867Z,8.00
2019-03-19T17:37:56.947Z,7.90
2019-03-19T17:40:27.273Z,7.80
2019-03-19T17:43:00.344Z,7.70
2019-03-19T17:45:30.711Z,7.70
2019-03-19T17:48:15.757Z,7.70
2019-03-19T17:50:35.292Z,7.60
2019-03-19T17:53:07.699Z,7.60
2019-03-19T17:55:37.902Z,7.60
2019-03-19T17:58:13.356Z,7.50
2019-03-19T18:00:50.781Z,7.50
2019-03-19T18:03:24.644Z,7.40
2019-03-19T18:05:54.730Z,7.40
2019-03-19T18:08:29.492Z,7.30
2019-03-19T18:11:04.616Z,7.20
2019-03-19T18:13:44.468Z,7.10
2019-03-19T18:16:17.718Z,7.10
2019-03-19T18:18:53.673Z,7.00
2019-03-19T18:21:25.364Z,6.90
2019-03-19T18:24:01.637Z,6.90
2019-03-19T18:26:32.724Z,6.70
2019-03-19T18:29:10.582Z,6.70
2019-03-19T18:31:41.087Z,6.60
2019-03-19T18:34:11.423Z,6.50
2019-03-19T18:36:44.666Z,6.50
2019-03-19T18:39:15.273Z,6.40
2019-03-19T18:41:45.728Z,6.30
2019-03-19T18:44:20.868Z,6.20
2019-03-19T18:46:53.504Z,6.10
2019-03-19T18:49:26.576Z,6.10
2019-03-19T18:51:59.385Z,6.00
2019-03-19T18:54:31.566Z,5.90
2019-03-19T18:57:05.733Z,5.80
2019-03-19T18:59:42.357Z,5.80
2019-03-19T19:02:16.335Z,5.70
2019-03-19T19:04:48.508Z,5.70
2019-03-19T19:07:20.733Z,5.70
2019-03-19T19:09:54.682Z,5.60
2019-03-19T19:12:32.840Z,5.60
2019-03-19T19:15:12.196Z,5.50
2019-03-19T19:17:42.552Z,5.40
2019-03-19T19:20:31.172Z,5.40
2019-03-19T19:22:57.219Z,5.30
2019-03-19T19:25:35.999Z,5.30
2019-03-19T19:28:06.110Z,5.20
2019-03-19T19:30:42.885Z,5.00
2019-03-19T19:33:18.367Z,5.00
2019-03-19T19:35:55.362Z,4.80
2019-03-19T19:38:23.791Z,4.80
2019-03-19T19:40:56.960Z,4.70
2019-03-19T19:43:30.161Z,4.70
2019-03-19T19:46:00.518Z,4.60
2019-03-19T19:48:43.760Z,4.60
2019-03-19T19:51:18.255Z,4.50
2019-03-19T19:53:58.993Z,4.50
2019-03-19T19:56:38.642Z,4.50
2019-03-19T19:59:04.996Z,4.50
2019-03-19T20:01:37.191Z,4.50
2019-03-19T20:04:12.320Z,4.50
2019-03-19T20:06:48.348Z,4.50
2019-03-19T20:09:29.342Z,4.60
2019-03-19T20:12:06.139Z,4.60
2019-03-19T20:14:36.943Z,4.70
2019-03-19T20:17:17.325Z,4.60
2019-03-19T20:20:04.558Z,4.70
2019-03-19T20:22:53.917Z,4.70
2019-03-19T20:25:27.382Z,4.70
2019-03-19T20:28:00.841Z,4.70
2019-03-19T20:30:31.128Z,4.70
2019-03-19T20:33:05.561Z,4.70
2019-03-19T20:35:50.014Z,4.70
2019-03-19T20:38:31.771Z,4.60
2019-03-19T20:41:02.189Z,4.50
2019-03-19T20:43:43.745Z,4.50
2019-03-19T20:46:15.516Z,4.40
2019-03-19T20:48:49.317Z,4.40
2019-03-19T20:51:43.115Z,4.30
2019-03-19T20:54:19.554Z,4.30
2019-03-19T20:56:54.427Z,4.30
2019-03-19T20:59:36.487Z,4.20
2019-03-19T21:02:08.821Z,4.20
2019-03-19T21:04:39.426Z,4.10
2019-03-19T21:07:09.580Z,4.10
2019-03-19T21:09:40.030Z,4.00
2019-03-19T21:12:11.009Z,3.90
2019-03-19T21:14:47.727Z,3.90
2019-03-19T21:17:24.951Z,3.80
2019-03-19T21:19:55.033Z,3.70
2019-03-19T21:22:25.698Z,3.60
2019-03-19T21:24:56.638Z,3.50
2019-03-19T21:27:27.522Z,3.50
2019-03-19T21:30:05.560Z,3.40
2019-03-19T21:32:40.563Z,3.30
2019-03-19T21:35:11.760Z,3.30
2019-03-19T21:37:49.058Z,3.20
2019-03-19T21:40:22.018Z,3.20
2019-03-19T21:42:52.547Z,3.20
2019-03-19T21:45:23.700Z,3.20
2019-03-19T21:47:57.579Z,3.10
2019-03-19T21:50:29.499Z,3.10
2019-03-19T21:53:01.201Z,3.10
2019-03-19T21:55:37.460Z,3.10
2019-03-19T21:58:07.737Z,3.10
2019-03-19T22:00:40.434Z,3.10
2019-03-19T22:03:11.918Z,3.10
2019-03-19T22:05:42.653Z,3.10
2019-03-19T22:08:16.065Z,3.00
2019-03-19T22:10:50.503Z,3.00
2019-03-19T22:13:25.405Z,2.90
2019-03-19T22:15:58.286Z,2.90
2019-03-19T22:18:30.869Z,2.80
2019-03-19T22:21:01.373Z,2.70
2019-03-19T22:23:34.976Z,2.60
2019-03-19T22:26:05.593Z,2.50
2019-03-19T22:28:38.292Z,2.50
2019-03-19T22:31:11.731Z,2.50
2019-03-19T22:33:42.374Z,2.40
2019-03-19T22:36:12.624Z,2.40
2019-03-19T22:38:44.133Z,2.40
2019-03-19T22:41:14.816Z,2.40
2019-03-19T22:43:45.994Z,2.40
2019-03-19T22:46:21.736Z,2.40
2019-03-19T22:48:50.424Z,2.40
2019-03-19T22:51:21.633Z,2.40
2019-03-19T22:53:53.707Z,2.30
2019-03-19T22:56:26.960Z,2.20
2019-03-19T22:58:57.484Z,2.10
2019-03-19T23:01:30.533Z,2.10
2019-03-19T23:04:01.687Z,2.10
2019-03-19T23:06:53.905Z,2.10
2019-03-19T23:09:29.263Z,2.10
2019-03-19T23:11:59.845Z,2.10
2019-03-19T23:14:30.460Z,2.00
2019-03-19T23:17:00.502Z,2.00
2019-03-19T23:19:30.493Z,2.00
2019-03-19T23:22:02.053Z,2.00
2019-03-19T23:24:32.290Z,2.10
2019-03-19T23:27:02.421Z,2.00
2019-03-19T23:29:32.824Z,2.00
2019-03-19T23:32:05.964Z,2.00
2019-03-19T23:34:38.730Z,2.00
2019-03-19T23:37:14.779Z,2.00
2019-03-19T23:39:51.344Z,1.90
2019-03-19T23:42:34.839Z,1.90
2019-03-19T23:45:07.447Z,1.80
2019-03-19T23:47:40.660Z,1.70
2019-03-19T23:50:11.660Z,1.70
2019-03-19T23:52:41.557Z,1.60
2019-03-19T23:55:13.460Z,1.60
2019-03-19T23:57:46.419Z,1.60
